createdAt,value
2019-02-15T00:01:31.372Z,72.17
2019-02-15T00:04:00.973Z,73.87
2019-02-15T00:06:31.993Z,75.13
2019-02-15T00:09:01.599Z,77.63
2019-02-15T00:11:32.456Z,83.13
2019-02-15T00:14:02.150Z,69.77
2019-02-15T00:16:31.790Z,81.60
2019-02-15T00:19:06.671Z,71.80
2019-02-15T00:21:39.937Z,71.87
2019-02-15T00:24:09.595Z,63.00
2019-02-15T00:26:39.236Z,67.30
2019-02-15T00:29:08.881Z,61.63
2019-02-15T00:31:38.500Z,74.10
2019-02-15T00:34:08.440Z,65.20
2019-02-15T00:36:39.544Z,59.80
2019-02-15T00:39:09.218Z,67.20
2019-02-15T00:41:38.868Z,68.27
2019-02-15T00:44:08.509Z,56.90
2019-02-15T00:46:46.396Z,64.57
2019-02-15T00:49:20.269Z,62.77
2019-02-15T00:51:57.200Z,57.40
2019-02-15T00:54:32.114Z,60.77
2019-02-15T00:58:11.160Z,56.67
2019-02-15T01:00:52.056Z,59.93
2019-02-15T01:03:27.884Z,63.97
2019-02-15T01:07:03.639Z,61.03
2019-02-15T01:09:42.804Z,64.17
2019-02-15T01:12:18.781Z,55.53
2019-02-15T01:14:48.400Z,63.53
2019-02-15T01:17:18.043Z,61.00
2019-02-15T01:19:47.649Z,68.53
2019-02-15T01:22:18.529Z,62.23
2019-02-15T01:24:48.161Z,68.30
2019-02-15T01:27:27.019Z,73.63
2019-02-15T01:30:02.829Z,62.70
2019-02-15T01:32:38.636Z,67.57
2019-02-15T01:36:14.518Z,61.67
2019-02-15T01:38:52.349Z,65.20
2019-02-15T01:41:31.272Z,68.23
2019-02-15T01:44:08.792Z,63.90
2019-02-15T01:46:48.384Z,61.90
2019-02-15T01:49:18.025Z,61.20
2019-02-15T01:51:47.636Z,65.97
2019-02-15T01:54:18.518Z,62.53
2019-02-15T01:56:48.139Z,62.97
2019-02-15T01:59:17.770Z,68.03
2019-02-15T02:01:47.412Z,57.70
2019-02-15T02:04:18.272Z,59.97
2019-02-15T02:06:47.899Z,59.33
2019-02-15T02:09:17.540Z,51.83
2019-02-15T02:11:47.149Z,59.57
2019-02-15T02:14:16.780Z,66.17
2019-02-15T02:16:46.409Z,65.40
2019-02-15T02:19:16.073Z,68.03
2019-02-15T02:21:45.669Z,67.07
2019-02-15T02:24:15.381Z,56.50
2019-02-15T02:26:44.997Z,58.93
2019-02-15T02:29:14.612Z,60.40
2019-02-15T02:31:44.274Z,69.60
2019-02-15T02:34:13.881Z,67.57
2019-02-15T02:36:51.363Z,59.47
2019-02-15T02:39:21.020Z,65.00
2019-02-15T02:41:50.630Z,65.57
2019-02-15T02:44:20.248Z,60.77
2019-02-15T02:46:49.867Z,67.17
2019-02-15T02:49:19.498Z,59.90
2019-02-15T02:51:49.138Z,73.20
2019-02-15T02:54:18.803Z,70.70
2019-02-15T02:56:48.405Z,68.93
2019-02-15T02:59:18.030Z,67.37
2019-02-15T03:01:47.779Z,65.57
2019-02-15T03:04:17.376Z,73.73
2019-02-15T03:06:48.277Z,65.10
2019-02-15T03:09:17.866Z,69.03
2019-02-15T03:11:47.529Z,64.50
2019-02-15T03:14:17.159Z,61.93
2019-02-15T03:16:46.809Z,65.37
2019-02-15T03:19:16.841Z,78.53
2019-02-15T03:21:46.459Z,63.90
2019-02-15T03:24:16.085Z,67.03
2019-02-15T03:26:46.324Z,67.03
2019-02-15T03:29:16.029Z,67.27
2019-02-15T03:31:45.644Z,64.03
2019-02-15T03:34:15.307Z,67.10
2019-02-15T03:37:55.290Z,66.53
2019-02-15T03:40:31.155Z,58.20
2019-02-15T03:43:00.790Z,63.80
2019-02-15T03:45:31.266Z,63.10
2019-02-15T03:48:00.865Z,68.17
2019-02-15T03:50:31.407Z,68.33
2019-02-15T03:53:01.077Z,63.40
2019-02-15T03:55:30.708Z,68.93
2019-02-15T03:58:00.336Z,61.13
2019-02-15T04:00:29.941Z,68.10
2019-02-15T04:02:59.590Z,61.70
2019-02-15T04:05:29.233Z,57.97
2019-02-15T04:07:58.891Z,61.80
2019-02-15T04:10:28.534Z,63.90
2019-02-15T04:12:58.197Z,63.23
2019-02-15T04:15:27.861Z,60.87
2019-02-15T04:17:57.937Z,62.50
2019-02-15T04:20:27.559Z,69.93
2019-02-15T04:22:57.251Z,67.73
2019-02-15T04:25:26.900Z,63.83
2019-02-15T04:27:56.541Z,67.77
2019-02-15T04:30:26.204Z,67.37
2019-02-15T04:32:55.823Z,64.97
2019-02-15T04:35:25.447Z,67.30
2019-02-15T04:37:55.223Z,68.87
2019-02-15T04:40:24.856Z,78.23
2019-02-15T04:42:54.493Z,64.03
2019-02-15T04:45:24.190Z,64.63
2019-02-15T04:47:56.342Z,65.80
2019-02-15T04:50:27.222Z,69.57
2019-02-15T04:52:56.869Z,68.27
2019-02-15T04:55:26.478Z,69.57
2019-02-15T04:57:56.129Z,73.63
2019-02-15T05:00:25.821Z,64.10
2019-02-15T05:02:55.465Z,64.87
2019-02-15T05:05:25.089Z,60.50
2019-02-15T05:07:54.757Z,61.43
2019-02-15T05:10:24.389Z,68.07
2019-02-15T05:12:54.042Z,66.60
2019-02-15T05:15:23.673Z,64.03
2019-02-15T05:17:53.317Z,60.83
2019-02-15T05:20:22.957Z,58.20
2019-02-15T05:22:53.916Z,58.20
2019-02-15T05:25:23.547Z,59.03
2019-02-15T05:27:53.152Z,51.80
2019-02-15T05:30:22.789Z,54.23
2019-02-15T05:32:52.419Z,60.47
2019-02-15T05:35:22.056Z,60.73
2019-02-15T05:37:51.676Z,62.80
2019-02-15T05:40:21.413Z,64.30
2019-02-15T05:42:51.068Z,57.50
2019-02-15T05:45:20.742Z,56.53
2019-02-15T05:48:04.549Z,63.20
2019-02-15T05:50:34.914Z,62.73
2019-02-15T05:53:06.919Z,70.90
2019-02-15T05:55:36.607Z,69.63
2019-02-15T05:58:08.608Z,65.47
2019-02-15T06:00:38.238Z,69.57
2019-02-15T06:03:08.289Z,73.57
2019-02-15T06:05:38.779Z,64.37
2019-02-15T06:08:08.418Z,74.40
2019-02-15T06:10:38.078Z,86.07
2019-02-15T06:13:07.708Z,66.70
2019-02-15T06:15:37.354Z,64.37
2019-02-15T06:18:07.017Z,74.93
2019-02-15T06:20:39.918Z,70.43
2019-02-15T06:23:10.798Z,71.40
2019-02-15T06:25:43.460Z,67.67
2019-02-15T06:28:14.289Z,71.33
2019-02-15T06:30:51.679Z,75.67
2019-02-15T06:33:22.593Z,69.57
2019-02-15T06:35:52.198Z,64.83
2019-02-15T06:38:21.809Z,71.80
2019-02-15T06:40:52.440Z,66.17
2019-02-15T06:43:22.054Z,70.23
2019-02-15T06:45:51.745Z,64.23
2019-02-15T06:48:21.414Z,54.17
2019-02-15T06:50:51.079Z,59.60
2019-02-15T06:53:20.722Z,57.60
2019-02-15T06:55:50.352Z,62.00
2019-02-15T06:58:20.025Z,58.90
2019-02-15T07:00:55.189Z,67.93
2019-02-15T07:03:40.799Z,56.47
2019-02-15T07:06:10.419Z,52.53
2019-02-15T07:08:41.401Z,49.07
2019-02-15T07:11:11.013Z,59.47
2019-02-15T07:13:40.700Z,56.47
2019-02-15T07:16:41.315Z,60.43
2019-02-15T07:19:10.944Z,58.77
2019-02-15T07:21:40.597Z,56.13
2019-02-15T07:24:10.193Z,52.77
2019-02-15T07:26:39.874Z,56.73
2019-02-15T07:29:09.579Z,54.90
2019-02-15T07:31:39.200Z,53.43
2019-02-15T07:34:08.817Z,47.10
2019-02-15T07:36:38.493Z,47.47
2019-02-15T07:39:08.192Z,46.03
2019-02-15T07:41:37.895Z,49.57
2019-02-15T07:44:07.576Z,52.07
2019-02-15T07:46:37.173Z,58.17
2019-02-15T07:49:06.872Z,41.60
2019-02-15T07:51:36.502Z,51.23
2019-02-15T07:54:06.113Z,38.63
2019-02-15T07:56:36.947Z,48.40
2019-02-15T07:59:06.624Z,37.33
2019-02-15T08:01:36.301Z,41.70
2019-02-15T08:04:07.167Z,45.37
2019-02-15T08:06:36.797Z,40.43
2019-02-15T08:09:10.729Z,36.33
2019-02-15T08:11:39.641Z,42.90
2019-02-15T08:14:14.909Z,38.00
2019-02-15T08:16:38.918Z,41.40
2019-02-15T08:19:08.581Z,43.43
2019-02-15T08:21:38.197Z,46.77
2019-02-15T08:24:07.818Z,43.27
2019-02-15T08:26:37.474Z,44.30
2019-02-15T08:29:09.524Z,35.93
2019-02-15T08:31:39.157Z,38.87
2019-02-15T08:34:08.769Z,37.70
2019-02-15T08:36:39.770Z,39.17
2019-02-15T08:39:09.393Z,39.73
2019-02-15T08:41:39.004Z,32.70
2019-02-15T08:44:08.637Z,36.77
2019-02-15T08:46:38.253Z,41.40
2019-02-15T08:49:07.878Z,39.67
2019-02-15T08:51:37.536Z,37.27
2019-02-15T08:54:07.148Z,36.37
2019-02-15T08:56:36.761Z,38.47
2019-02-15T08:59:08.772Z,39.23
2019-02-15T09:01:39.645Z,34.20
2019-02-15T09:04:09.261Z,37.17
2019-02-15T09:06:38.884Z,37.47
2019-02-15T09:09:08.513Z,31.23
2019-02-15T09:11:38.228Z,35.20
2019-02-15T09:14:07.869Z,47.37
2019-02-15T09:16:37.460Z,36.90
2019-02-15T09:19:07.057Z,35.10
2019-02-15T09:21:36.719Z,37.27
2019-02-15T09:24:06.310Z,31.27
2019-02-15T09:26:35.918Z,36.30
2019-02-15T09:29:12.563Z,30.43
2019-02-15T09:31:42.217Z,27.63
2019-02-15T09:34:11.821Z,28.97
2019-02-15T09:36:42.706Z,27.60
2019-02-15T09:39:12.347Z,26.30
2019-02-15T09:41:41.953Z,25.43
2019-02-15T09:44:11.586Z,23.83
2019-02-15T09:46:41.245Z,24.47
2019-02-15T09:49:10.897Z,24.07
2019-02-15T09:51:41.872Z,22.83
2019-02-15T09:54:11.553Z,23.03
2019-02-15T09:56:41.189Z,22.20
2019-02-15T09:59:10.816Z,25.03
2019-02-15T10:01:40.447Z,21.20
2019-02-15T10:04:12.589Z,21.60
2019-02-15T10:06:42.201Z,18.47
2019-02-15T10:09:11.850Z,24.17
2019-02-15T10:11:41.525Z,26.90
2019-02-15T10:14:11.136Z,22.43
2019-02-15T10:16:40.757Z,21.33
2019-02-15T10:19:11.665Z,18.43
2019-02-15T10:21:41.346Z,22.80
2019-02-15T10:24:12.198Z,22.27
2019-02-15T10:26:41.859Z,17.50
2019-02-15T10:29:11.469Z,20.90
2019-02-15T10:31:41.087Z,17.90
2019-02-15T10:34:11.041Z,17.00
2019-02-15T10:36:42.755Z,18.30
2019-02-15T10:39:12.391Z,16.70
2019-02-15T10:41:41.977Z,14.63
2019-02-15T10:44:11.635Z,14.03
2019-02-15T10:46:41.318Z,14.63
2019-02-15T10:49:10.922Z,20.03
2019-02-15T10:51:41.882Z,13.87
2019-02-15T10:54:13.980Z,14.77
2019-02-15T10:56:43.577Z,15.63
2019-02-15T10:59:13.187Z,14.93
2019-02-15T11:01:44.101Z,17.30
2019-02-15T11:04:13.706Z,15.63
2019-02-15T11:06:43.331Z,16.43
2019-02-15T11:09:13.214Z,16.43
2019-02-15T11:11:42.970Z,14.77
2019-02-15T11:14:12.597Z,11.20
2019-02-15T11:16:47.246Z,14.90
2019-02-15T11:19:12.025Z,15.17
2019-02-15T11:21:41.631Z,14.47
2019-02-15T11:24:12.505Z,13.47
2019-02-15T11:26:42.126Z,12.73
2019-02-15T11:29:11.736Z,13.67
2019-02-15T11:31:41.422Z,10.73
2019-02-15T11:34:11.037Z,12.83
2019-02-15T11:36:40.680Z,13.23
2019-02-15T11:39:10.301Z,13.20
2019-02-15T11:41:39.906Z,11.37
2019-02-15T11:44:09.585Z,12.97
2019-02-15T11:46:39.233Z,11.60
2019-02-15T11:49:08.845Z,10.50
2019-02-15T11:51:38.489Z,11.60
2019-02-15T11:54:08.174Z,12.73
2019-02-15T11:56:37.799Z,13.10
2019-02-15T11:59:08.652Z,12.17
2019-02-15T12:01:38.340Z,13.97
2019-02-15T12:04:08.017Z,11.50
2019-02-15T12:06:37.675Z,15.47
2019-02-15T12:09:07.341Z,12.90
2019-02-15T12:11:36.983Z,10.73
2019-02-15T12:14:06.691Z,12.17
2019-02-15T12:16:38.112Z,13.10
2019-02-15T12:19:06.614Z,15.60
2019-02-15T12:21:36.215Z,12.57
2019-02-15T12:24:05.849Z,13.83
2019-02-15T12:26:35.484Z,12.27
2019-02-15T12:29:06.341Z,14.60
2019-02-15T12:31:37.153Z,11.17
2019-02-15T12:34:07.433Z,13.30
2019-02-15T12:36:36.410Z,10.83
2019-02-15T12:39:06.085Z,12.23
2019-02-15T12:41:35.763Z,11.50
2019-02-15T12:44:05.361Z,11.53
2019-02-15T12:46:34.974Z,10.90
2019-02-15T12:49:04.612Z,8.60
2019-02-15T12:51:36.745Z,8.67
2019-02-15T12:54:06.339Z,12.00
2019-02-15T12:56:36.029Z,12.00
2019-02-15T12:59:06.808Z,11.33
2019-02-15T13:01:36.438Z,13.47
2019-02-15T13:04:06.047Z,11.73
2019-02-15T13:06:38.170Z,12.87
2019-02-15T13:09:07.801Z,14.00
2019-02-15T13:11:39.926Z,15.53
2019-02-15T13:14:09.557Z,14.47
2019-02-15T13:16:39.181Z,14.17
2019-02-15T13:19:08.848Z,18.67
2019-02-15T13:21:38.461Z,15.67
2019-02-15T13:24:08.069Z,15.03
2019-02-15T13:26:38.937Z,16.90
2019-02-15T13:29:08.580Z,17.97
2019-02-15T13:31:38.185Z,18.10
2019-02-15T13:34:07.834Z,16.87
2019-02-15T13:36:38.563Z,16.70
2019-02-15T13:39:09.843Z,18.23
2019-02-15T13:41:37.884Z,16.93
2019-02-15T13:44:07.493Z,18.90
2019-02-15T13:46:37.141Z,19.50
2019-02-15T13:49:06.810Z,15.53
2019-02-15T13:51:36.435Z,13.53
2019-02-15T13:54:06.073Z,17.73
2019-02-15T13:56:35.752Z,14.90
2019-02-15T13:59:05.381Z,14.43
2019-02-15T14:01:35.024Z,15.53
2019-02-15T14:04:07.160Z,15.23
2019-02-15T14:06:36.805Z,13.77
2019-02-15T14:09:06.529Z,18.70
2019-02-15T14:11:36.130Z,20.03
2019-02-15T14:14:05.769Z,19.23
2019-02-15T14:16:38.041Z,24.13
2019-02-15T14:19:07.668Z,22.27
2019-02-15T14:21:44.068Z,16.00
2019-02-15T14:24:06.991Z,17.57
2019-02-15T14:26:37.898Z,19.97
2019-02-15T14:29:07.592Z,17.37
2019-02-15T14:31:37.229Z,16.60
2019-02-15T14:34:06.852Z,20.20
2019-02-15T14:36:37.700Z,18.77
2019-02-15T14:39:09.563Z,20.90
2019-02-15T14:41:40.797Z,20.13
2019-02-15T14:44:10.422Z,17.10
2019-02-15T14:46:40.053Z,18.90
2019-02-15T14:49:12.181Z,17.67
2019-02-15T14:51:41.889Z,15.33
2019-02-15T14:54:11.530Z,18.00
2019-02-15T14:56:41.225Z,16.37
2019-02-15T14:59:10.924Z,18.97
2019-02-15T15:01:40.562Z,17.30
2019-02-15T15:04:10.204Z,16.40
2019-02-15T15:06:39.856Z,16.13
2019-02-15T15:09:09.521Z,17.50
2019-02-15T15:11:39.204Z,18.57
2019-02-15T15:14:08.809Z,20.03
2019-02-15T15:16:42.135Z,17.40
2019-02-15T15:19:11.784Z,18.67
2019-02-15T15:21:41.394Z,17.50
2019-02-15T15:24:12.389Z,20.50
2019-02-15T15:26:42.055Z,19.67
2019-02-15T15:29:11.671Z,20.73
2019-02-15T15:31:41.386Z,32.07
2019-02-15T15:34:11.099Z,24.80
2019-02-15T15:36:40.757Z,26.13
2019-02-15T15:39:10.430Z,26.67
2019-02-15T15:41:40.096Z,22.37
2019-02-15T15:44:09.869Z,21.97
2019-02-15T15:46:39.541Z,21.43
2019-02-15T15:49:09.153Z,23.57
2019-02-15T15:51:38.825Z,40.13
2019-02-15T15:54:09.706Z,22.67
2019-02-15T15:56:39.508Z,24.70
2019-02-15T15:59:09.139Z,23.07
2019-02-15T16:01:38.822Z,27.73
2019-02-15T16:04:08.489Z,61.43
2019-02-15T16:06:38.135Z,20.80
2019-02-15T16:09:07.838Z,25.30
2019-02-15T16:11:37.477Z,19.60
2019-02-15T16:14:07.165Z,22.53
2019-02-15T16:16:36.844Z,18.13
2019-02-15T16:19:06.447Z,21.57
2019-02-15T16:21:36.640Z,19.00
2019-02-15T16:24:12.327Z,22.97
2019-02-15T16:26:39.425Z,20.43
2019-02-15T16:29:09.275Z,18.03
2019-02-15T16:31:38.894Z,21.17
2019-02-15T16:34:08.523Z,49.73
2019-02-15T16:36:38.156Z,20.50
2019-02-15T16:39:07.773Z,22.30
2019-02-15T16:41:37.425Z,23.20
2019-02-15T16:44:08.310Z,21.77
2019-02-15T16:46:37.985Z,27.37
2019-02-15T16:49:07.622Z,17.90
2019-02-15T16:51:38.546Z,20.23
2019-02-15T16:54:08.147Z,17.10
2019-02-15T16:56:37.830Z,20.03
2019-02-15T16:59:07.438Z,16.90
2019-02-15T17:01:37.086Z,21.53
2019-02-15T17:04:06.701Z,16.97
2019-02-15T17:06:36.337Z,17.67
2019-02-15T17:09:11.625Z,26.53
2019-02-15T17:11:42.586Z,22.17
2019-02-15T17:14:12.243Z,21.40
2019-02-15T17:16:41.853Z,18.20
2019-02-15T17:19:13.893Z,22.60
2019-02-15T17:21:43.517Z,20.37
2019-02-15T17:24:13.179Z,20.37
2019-02-15T17:26:42.789Z,20.37
2019-02-15T17:29:12.457Z,27.20
2019-02-15T17:31:42.056Z,23.37
2019-02-15T17:34:11.671Z,26.57
2019-02-15T17:36:41.379Z,25.47
2019-02-15T17:39:10.982Z,27.53
2019-02-15T17:41:40.727Z,31.33
2019-02-15T17:44:10.429Z,30.67
2019-02-15T17:46:40.037Z,26.10
2019-02-15T17:49:09.702Z,27.57
2019-02-15T17:51:39.369Z,65.47
2019-02-15T17:54:08.984Z,30.83
2019-02-15T17:56:38.650Z,34.37
2019-02-15T17:59:08.273Z,38.70
2019-02-15T18:01:37.951Z,33.40
2019-02-15T18:04:07.571Z,35.00
2019-02-15T18:06:37.306Z,35.03
2019-02-15T18:09:07.033Z,35.13
2019-02-15T18:11:36.680Z,35.10
2019-02-15T18:14:06.917Z,39.63
2019-02-15T18:16:39.030Z,40.57
2019-02-15T18:19:10.263Z,40.27
2019-02-15T18:21:38.246Z,44.20
2019-02-15T18:24:07.909Z,38.17
2019-02-15T18:26:37.546Z,41.27
2019-02-15T18:29:07.244Z,38.20
2019-02-15T18:31:36.857Z,35.77
2019-02-15T18:34:08.897Z,36.43
2019-02-15T18:36:38.509Z,35.77
2019-02-15T18:39:08.131Z,41.63
2019-02-15T18:41:37.794Z,39.10
2019-02-15T18:44:07.459Z,41.17
2019-02-15T18:46:37.130Z,37.23
2019-02-15T18:49:06.737Z,36.17
2019-02-15T18:51:37.681Z,39.40
2019-02-15T18:54:07.361Z,38.27
2019-02-15T18:56:37.025Z,37.47
2019-02-15T18:59:06.730Z,32.50
2019-02-15T19:01:36.732Z,36.17
2019-02-15T19:04:06.353Z,33.97
2019-02-15T19:06:36.797Z,33.33
2019-02-15T19:09:06.769Z,31.03
2019-02-15T19:11:36.441Z,31.43
2019-02-15T19:14:06.395Z,36.13
2019-02-15T19:16:36.059Z,32.47
2019-02-15T19:19:05.677Z,30.20
2019-02-15T19:21:35.282Z,32.07
2019-02-15T19:24:04.905Z,33.03
2019-02-15T19:26:34.557Z,28.03
2019-02-15T19:29:04.197Z,31.87
2019-02-15T19:31:35.015Z,27.70
2019-02-15T19:34:04.856Z,27.90
2019-02-15T19:36:35.093Z,28.03
2019-02-15T19:39:05.837Z,25.33
2019-02-15T19:41:35.465Z,26.27
2019-02-15T19:44:05.095Z,26.97
2019-02-15T19:46:34.780Z,29.13
2019-02-15T19:49:04.443Z,25.07
2019-02-15T19:51:35.857Z,26.00
2019-02-15T19:54:03.765Z,25.97
2019-02-15T19:56:33.786Z,24.40
2019-02-15T19:59:04.614Z,25.43
2019-02-15T20:01:34.488Z,19.60
2019-02-15T20:04:04.182Z,22.80
2019-02-15T20:06:33.865Z,20.70
2019-02-15T20:09:03.733Z,21.97
2019-02-15T20:11:34.500Z,21.17
2019-02-15T20:14:04.164Z,22.60
2019-02-15T20:16:33.834Z,22.70
2019-02-15T20:19:03.512Z,22.70
2019-02-15T20:21:33.169Z,22.67
2019-02-15T20:24:03.821Z,23.10
2019-02-15T20:26:33.577Z,24.70
2019-02-15T20:29:03.268Z,23.60
2019-02-15T20:31:33.244Z,24.77
2019-02-15T20:34:02.882Z,26.63
2019-02-15T20:36:32.529Z,23.03
2019-02-15T20:39:03.445Z,22.07
2019-02-15T20:41:33.102Z,21.67
2019-02-15T20:44:02.750Z,23.43
2019-02-15T20:46:33.035Z,24.23
2019-02-15T20:49:04.901Z,24.97
2019-02-15T20:51:32.578Z,25.87
2019-02-15T20:54:03.528Z,26.90
2019-02-15T20:56:33.194Z,25.80
2019-02-15T20:59:03.357Z,23.73
2019-02-15T21:01:33.013Z,23.13
2019-02-15T21:04:02.660Z,24.30
2019-02-15T21:06:32.729Z,23.97
2019-02-15T21:09:02.357Z,26.30
2019-02-15T21:11:32.153Z,24.37
2019-02-15T21:14:01.907Z,27.43
2019-02-15T21:16:31.545Z,23.50
2019-02-15T21:19:01.408Z,23.47
2019-02-15T21:21:31.031Z,24.87
2019-02-15T21:24:00.677Z,23.07
2019-02-15T21:29:05.613Z,24.50
2019-02-15T21:31:36.547Z,30.40
2019-02-15T21:34:06.189Z,31.93
2019-02-15T21:36:36.209Z,35.93
2019-02-15T21:39:06.949Z,31.47
2019-02-15T21:41:36.684Z,29.80
2019-02-15T21:44:07.272Z,32.60
2019-02-15T21:46:37.501Z,29.10
2019-02-15T21:49:10.136Z,34.53
2019-02-15T21:51:40.152Z,29.43
2019-02-15T21:54:11.095Z,33.77
2019-02-15T21:56:40.721Z,33.80
2019-02-15T21:59:10.362Z,36.03
2019-02-15T22:01:39.982Z,32.83
2019-02-15T22:04:09.605Z,30.60
2019-02-15T22:06:40.586Z,29.20
2019-02-15T22:09:11.570Z,33.37
2019-02-15T22:11:41.194Z,31.13
2019-02-15T22:14:13.389Z,35.87
2019-02-15T22:16:43.044Z,28.73
2019-02-15T22:19:12.678Z,35.27
2019-02-15T22:21:43.438Z,31.97
2019-02-15T22:24:13.320Z,33.30
2019-02-15T22:26:42.945Z,37.13
2019-02-15T22:29:12.561Z,33.57
2019-02-15T22:31:42.235Z,38.43
2019-02-15T22:34:11.908Z,36.57
2019-02-15T22:36:41.537Z,40.07
2019-02-15T22:39:12.578Z,34.30
2019-02-15T22:41:42.280Z,35.07
2019-02-15T22:44:11.964Z,34.10
2019-02-15T22:46:41.666Z,34.40
2019-02-15T22:49:11.262Z,33.27
2019-02-15T22:51:42.089Z,35.93
2019-02-15T22:54:14.197Z,31.20
2019-02-15T22:56:44.604Z,31.77
2019-02-15T22:59:14.213Z,31.83
2019-02-15T23:01:43.847Z,34.63
2019-02-15T23:05:42.983Z,29.80
2019-02-15T23:08:12.592Z,31.90
2019-02-15T23:10:42.211Z,31.53
2019-02-15T23:13:13.173Z,32.73
2019-02-15T23:15:42.781Z,31.83
2019-02-15T23:18:12.385Z,32.30
2019-02-15T23:20:45.512Z,31.20
2019-02-15T23:23:14.165Z,30.77
2019-02-15T23:25:43.798Z,30.33
2019-02-15T23:28:13.461Z,28.73
2019-02-15T23:30:43.061Z,32.37
2019-02-15T23:33:12.664Z,29.43
2019-02-15T23:35:42.304Z,32.67
2019-02-15T23:38:11.900Z,30.67
2019-02-15T23:40:42.725Z,25.30
2019-02-15T23:43:12.359Z,26.97
2019-02-15T23:45:41.948Z,29.10
2019-02-15T23:48:12.891Z,26.53
2019-02-15T23:50:42.509Z,26.70
2019-02-15T23:53:12.129Z,29.20
2019-02-15T23:55:45.300Z,29.50
2019-02-15T23:58:14.932Z,26.33
